createdAt,value
2019-05-16T00:01:19.164Z,6.9
2019-05-16T00:06:49.233Z,6.8
2019-05-16T00:12:21.346Z,6.6
2019-05-16T00:17:53.349Z,6.6
2019-05-16T00:23:25.414Z,6.5
2019-05-16T00:28:58.870Z,6.6
2019-05-16T00:34:29.416Z,6.6
2019-05-16T00:40:01.460Z,6.4
2019-05-16T00:45:33.400Z,6.3
2019-05-16T00:51:07.651Z,6.3
2019-05-16T00:56:38.284Z,6.3
2019-05-16T01:02:09.375Z,6.3
2019-05-16T01:07:41.325Z,6.3
2019-05-16T01:13:13.342Z,6.3
2019-05-16T01:18:45.229Z,6.3
2019-05-16T01:24:18.750Z,6.1
2019-05-16T01:29:50.209Z,6
2019-05-16T01:35:22.915Z,6.1
2019-05-16T01:40:55.011Z,6.1
2019-05-16T01:46:28.430Z,6
2019-05-16T01:51:58.998Z,5.8
2019-05-16T01:57:30.893Z,5.1
2019-05-16T02:03:02.907Z,4.4
2019-05-16T02:08:34.746Z,4.3
2019-05-16T02:14:06.561Z,4.7
2019-05-16T02:19:38.599Z,4.4
2019-05-16T02:25:10.082Z,4.1
2019-05-16T02:30:42.264Z,4.2
2019-05-16T02:36:13.551Z,3.7
2019-05-16T02:41:46.116Z,4.2
2019-05-16T02:47:16.971Z,3.9
2019-05-16T02:52:51.357Z,4
2019-05-16T02:58:23.202Z,3.9
2019-05-16T03:03:52.217Z,3.5
2019-05-16T03:09:23.953Z,3.2
2019-05-16T03:14:55.634Z,3.6
2019-05-16T03:20:27.363Z,3.9
2019-05-16T03:26:00.894Z,4.1
2019-05-16T03:31:33.964Z,4
2019-05-16T03:37:04.479Z,4.1
2019-05-16T03:42:35.443Z,3.9
2019-05-16T03:48:11.612Z,3.8
2019-05-16T03:53:40.714Z,3.9
2019-05-16T03:59:13.186Z,3.9
2019-05-16T04:04:45.803Z,3.9
2019-05-16T04:10:21.334Z,3.8
2019-05-16T04:15:52.210Z,4.2
2019-05-16T04:21:23.372Z,4.5
2019-05-16T04:26:55.948Z,4.5
2019-05-16T04:32:31.412Z,4.8
2019-05-16T04:38:01.928Z,4.9
2019-05-16T04:43:33.580Z,5
2019-05-16T04:49:06.323Z,4.5
2019-05-16T04:54:41.791Z,4.6
2019-05-16T05:00:11.959Z,4.7
2019-05-16T05:05:44.695Z,4.6
2019-05-16T05:11:17.427Z,4.7
2019-05-16T05:16:50.684Z,5
2019-05-16T05:22:23.001Z,5.7
2019-05-16T05:27:56.005Z,5.7
2019-05-16T05:33:31.042Z,5.9
2019-05-16T05:39:11.045Z,5.8
2019-05-16T05:44:35.400Z,5.5
2019-05-16T05:50:10.837Z,5.7
2019-05-16T05:55:41.602Z,5.8
2019-05-16T06:01:14.726Z,6.2
2019-05-16T06:06:50.158Z,6.5
2019-05-16T06:12:21.435Z,6.6
2019-05-16T06:17:54.623Z,6.9
2019-05-16T06:23:30.773Z,7
2019-05-16T06:29:01.690Z,6.8
2019-05-16T06:34:35.219Z,6.7
2019-05-16T06:40:10.705Z,6.8
2019-05-16T06:45:41.988Z,7.2
2019-05-16T06:51:15.645Z,7.1
2019-05-16T06:56:50.933Z,7.3
2019-05-16T07:02:29.794Z,7.4
2019-05-16T07:07:56.948Z,7.7
2019-05-16T07:13:30.929Z,7.7
2019-05-16T07:19:04.864Z,7.9
2019-05-16T07:24:39.925Z,8
2019-05-16T07:30:12.696Z,8.4
2019-05-16T07:35:46.694Z,8.6
2019-05-16T07:41:20.651Z,9
2019-05-16T07:46:54.590Z,8.7
2019-05-16T07:52:30.939Z,9
2019-05-16T07:58:02.581Z,9.4
2019-05-16T08:03:36.789Z,9.4
2019-05-16T08:09:12.345Z,8.8
2019-05-16T08:14:44.708Z,8.6
2019-05-16T08:20:21.053Z,9.3
2019-05-16T08:25:52.658Z,10
2019-05-16T08:31:26.785Z,9.9
2019-05-16T08:37:01.323Z,10
2019-05-16T08:42:35.287Z,10.6
2019-05-16T08:48:11.471Z,10.3
2019-05-16T08:53:43.991Z,10.7
2019-05-16T08:59:21.368Z,10.4
2019-05-16T09:04:53.506Z,10.5
2019-05-16T09:16:01.059Z,10.9
2019-05-16T09:21:38.053Z,10.6
2019-05-16T09:27:12.638Z,10.7
2019-05-16T09:32:43.846Z,10.8
2019-05-16T09:38:22.990Z,11.4
2019-05-16T09:43:52.431Z,11.8
2019-05-16T09:49:26.675Z,11.9
2019-05-16T09:55:01.080Z,11.7
2019-05-16T10:00:37.317Z,11.5
2019-05-16T10:06:09.966Z,11.7
2019-05-16T10:11:44.562Z,12
2019-05-16T10:17:19.171Z,11.5
2019-05-16T10:22:53.707Z,12.3
2019-05-16T10:28:28.316Z,12.1
2019-05-16T10:34:03.026Z,12.3
2019-05-16T10:39:37.670Z,12.5
2019-05-16T10:45:12.349Z,11.8
2019-05-16T10:50:47.715Z,12.5
2019-05-16T10:56:21.624Z,12.4
2019-05-16T11:01:56.322Z,12.4
2019-05-16T11:07:30.627Z,12.4
2019-05-16T11:13:07.859Z,12.9
2019-05-16T11:18:39.916Z,13.6
2019-05-16T11:24:14.696Z,12.5
2019-05-16T11:29:53.778Z,12.3
2019-05-16T11:35:28.423Z,13.5
2019-05-16T11:41:03.186Z,12.5
2019-05-16T11:46:37.824Z,12.7
2019-05-16T11:52:12.539Z,13.1
2019-05-16T11:57:47.779Z,12.6
2019-05-16T12:03:22.280Z,13.5
2019-05-16T12:08:57.112Z,12.8
2019-05-16T12:14:31.671Z,12.8
2019-05-16T12:20:07.741Z,12.4
2019-05-16T12:25:40.576Z,13.7
2019-05-16T12:31:19.671Z,14.1
2019-05-16T12:36:56.558Z,13.1
2019-05-16T12:42:29.573Z,13
2019-05-16T12:48:06.776Z,13.4
2019-05-16T12:53:39.580Z,13.6
2019-05-16T12:59:18.504Z,13.4
2019-05-16T13:04:50.037Z,13.9
2019-05-16T13:10:26.961Z,13.6
2019-05-16T13:16:00.703Z,13.2
2019-05-16T13:21:38.033Z,14.2
2019-05-16T13:32:48.416Z,13.4
2019-05-16T13:38:23.981Z,13.4
2019-05-16T13:44:12.859Z,12.5
2019-05-16T13:49:33.866Z,13.4
2019-05-16T13:55:08.753Z,14.1
2019-05-16T14:00:43.703Z,13.2
2019-05-16T14:06:19.018Z,14.2
2019-05-16T14:11:56.399Z,14.1
2019-05-16T14:17:29.952Z,14.3
2019-05-16T14:23:08.391Z,13.8
2019-05-16T14:28:44.359Z,14
2019-05-16T14:34:17.945Z,13.9
2019-05-16T14:39:52.194Z,14.5
2019-05-16T14:45:27.776Z,13.8
2019-05-16T14:51:03.241Z,14.2
2019-05-16T14:56:38.912Z,14.4
2019-05-16T15:02:14.417Z,14
2019-05-16T15:07:50.178Z,13.6
2019-05-16T15:13:27.927Z,14.7
2019-05-16T15:19:01.571Z,14.1
2019-05-16T15:24:37.257Z,14
2019-05-16T15:30:12.306Z,13.8
2019-05-16T15:35:47.268Z,13.7
2019-05-16T15:41:22.227Z,14
2019-05-16T15:46:59.818Z,14.5
2019-05-16T15:52:32.734Z,13.7
2019-05-16T15:58:10.236Z,13.7
2019-05-16T16:03:43.122Z,14.1
2019-05-16T16:09:18.323Z,14.2
2019-05-16T16:14:54.080Z,14.2
2019-05-16T16:20:29.519Z,14
2019-05-16T16:26:07.028Z,14.1
2019-05-16T16:31:40.465Z,14
2019-05-16T16:37:16.770Z,13.7
2019-05-16T16:42:50.440Z,13.3
2019-05-16T16:48:26.574Z,13.8
2019-05-16T16:53:59.873Z,13.9
2019-05-16T16:59:37.032Z,13.8
2019-05-16T17:05:12.103Z,13.6
2019-05-16T17:10:47.572Z,13.8
2019-05-16T17:16:25.447Z,13.6
2019-05-16T17:22:11.022Z,13.4
2019-05-16T17:27:30.698Z,13.2
2019-05-16T17:33:07.524Z,13.2
2019-05-16T17:38:40.393Z,12.9
2019-05-16T17:44:15.173Z,13
2019-05-16T17:49:49.895Z,12.8
2019-05-16T17:55:26.860Z,12.4
2019-05-16T18:01:00.344Z,12.3
2019-05-16T18:06:33.368Z,12.2
2019-05-16T18:12:07.567Z,12.2
2019-05-16T18:17:41.331Z,12.5
2019-05-16T18:23:16.417Z,12.5
2019-05-16T18:28:49.002Z,12.2
2019-05-16T18:34:23.017Z,12
2019-05-16T18:39:56.880Z,11.8
2019-05-16T18:45:30.519Z,11.8
2019-05-16T18:51:06.445Z,11.7
2019-05-16T18:56:37.404Z,11.1
2019-05-16T19:02:10.505Z,10.8
2019-05-16T19:07:42.973Z,11
2019-05-16T19:13:16.810Z,11
2019-05-16T19:18:48.315Z,10.4
2019-05-16T19:24:20.948Z,10.5
2019-05-16T19:29:53.480Z,10.6
2019-05-16T19:35:27.413Z,10.3
2019-05-16T19:40:58.518Z,10.3
2019-05-16T19:46:31.042Z,10.2
2019-05-16T19:52:03.591Z,10.2
2019-05-16T19:57:37.362Z,9.8
2019-05-16T20:03:08.545Z,9
2019-05-16T20:08:40.942Z,8.9
2019-05-16T20:14:13.313Z,9
2019-05-16T20:19:47.036Z,8.9
2019-05-16T20:25:18.044Z,8.8
2019-05-16T20:30:50.354Z,8.5
2019-05-16T20:36:22.742Z,8.7
2019-05-16T20:41:56.890Z,8.8
2019-05-16T20:47:27.434Z,8.8
2019-05-16T20:52:59.765Z,8.6
2019-05-16T20:58:32.022Z,8.6
2019-05-16T21:04:06.798Z,8.5
2019-05-16T21:09:36.950Z,8.5
2019-05-16T21:15:09.436Z,8.3
2019-05-16T21:20:42.610Z,8.1
2019-05-16T21:26:15.735Z,8.1
2019-05-16T21:31:48.851Z,7.9
2019-05-16T21:37:21.979Z,8.1
2019-05-16T21:42:58.254Z,7.9
2019-05-16T21:48:28.140Z,7.8
2019-05-16T21:54:01.174Z,7.5
2019-05-16T21:59:34.235Z,7.4
2019-05-16T22:05:07.262Z,7.4
2019-05-16T22:10:40.261Z,7.1
2019-05-16T22:16:13.265Z,7.2
2019-05-16T22:21:46.213Z,7.1
2019-05-16T22:27:19.262Z,7.2
2019-05-16T22:32:52.162Z,7.7
2019-05-16T22:38:26.228Z,8
2019-05-16T22:43:56.522Z,7.9
2019-05-16T22:49:29.452Z,7.6
2019-05-16T22:55:02.454Z,7.3
2019-05-16T23:00:38.033Z,7.3
2019-05-16T23:06:08.491Z,7.7
2019-05-16T23:11:41.450Z,7.1
2019-05-16T23:17:14.451Z,7.2
2019-05-16T23:22:47.394Z,7
2019-05-16T23:28:20.444Z,6.8
2019-05-16T23:33:53.341Z,7
2019-05-16T23:39:26.385Z,6.7
2019-05-16T23:44:59.195Z,6.5
2019-05-16T23:50:32.114Z,6.5
2019-05-16T23:56:07.166Z,6.5
